createdAt,value
2019-05-22T00:00:08.889Z,13.61
2019-05-22T00:02:39.204Z,13.54
2019-05-22T00:05:10.864Z,13.61
2019-05-22T00:07:39.422Z,13.62
2019-05-22T00:10:08.984Z,13.58
2019-05-22T00:12:46.253Z,13.58
2019-05-22T00:15:07.411Z,13.59
2019-05-22T00:17:35.066Z,13.61
2019-05-22T00:20:03.194Z,13.60
2019-05-22T00:22:31.349Z,13.63
2019-05-22T00:25:01.015Z,13.64
2019-05-22T00:27:30.490Z,13.56
2019-05-22T00:29:59.288Z,13.59
2019-05-22T00:32:26.540Z,13.45
2019-05-22T00:34:55.022Z,13.44
2019-05-22T00:37:22.015Z,13.44
2019-05-22T00:39:51.564Z,13.33
2019-05-22T00:42:20.341Z,13.35
2019-05-22T00:44:47.968Z,13.33
2019-05-22T00:47:14.560Z,13.29
2019-05-22T00:49:44.716Z,13.27
2019-05-22T00:52:17.891Z,13.24
2019-05-22T00:54:47.226Z,13.27
2019-05-22T00:57:15.793Z,13.19
2019-05-22T00:59:44.586Z,13.23
2019-05-22T01:02:13.777Z,13.09
2019-05-22T01:04:41.718Z,12.98
2019-05-22T01:07:12.627Z,13.02
2019-05-22T01:09:42.463Z,12.96
2019-05-22T01:12:16.098Z,12.85
2019-05-22T01:14:44.930Z,13.03
2019-05-22T01:17:11.954Z,13.05
2019-05-22T01:19:38.932Z,13.02
2019-05-22T01:22:08.434Z,12.96
2019-05-22T01:24:37.641Z,12.89
2019-05-22T01:27:04.347Z,12.87
2019-05-22T01:29:35.053Z,12.74
2019-05-22T01:32:05.608Z,12.88
2019-05-22T01:34:34.737Z,12.84
2019-05-22T01:37:04.067Z,12.80
2019-05-22T01:39:38.326Z,12.89
2019-05-22T01:42:11.282Z,12.97
2019-05-22T01:44:40.313Z,12.95
2019-05-22T01:47:15.994Z,12.86
2019-05-22T01:49:49.475Z,12.73
2019-05-22T01:52:17.237Z,12.71
2019-05-22T01:54:45.593Z,12.65
2019-05-22T01:57:15.002Z,12.70
2019-05-22T01:59:42.500Z,12.74
2019-05-22T02:02:13.241Z,12.69
2019-05-22T02:04:41.845Z,12.67
2019-05-22T02:07:13.354Z,12.61
2019-05-22T02:09:43.679Z,12.50
2019-05-22T02:12:17.983Z,12.51
2019-05-22T02:14:50.487Z,12.58
2019-05-22T02:17:23.363Z,12.51
2019-05-22T02:19:51.636Z,12.43
2019-05-22T02:22:18.461Z,12.48
2019-05-22T02:24:49.427Z,12.40
2019-05-22T02:27:16.990Z,12.47
2019-05-22T02:29:46.437Z,12.48
2019-05-22T02:32:13.821Z,12.53
2019-05-22T02:34:40.705Z,12.51
2019-05-22T02:37:10.362Z,12.43
2019-05-22T02:39:37.886Z,12.27
2019-05-22T02:42:12.309Z,12.30
2019-05-22T02:44:41.953Z,12.33
2019-05-22T02:47:19.069Z,12.34
2019-05-22T02:49:39.494Z,12.46
2019-05-22T02:52:08.204Z,12.48
2019-05-22T02:54:36.729Z,12.46
2019-05-22T02:57:04.716Z,12.56
2019-05-22T02:59:32.184Z,12.73
2019-05-22T03:02:00.745Z,12.85
2019-05-22T03:04:33.922Z,12.92
2019-05-22T03:07:01.940Z,12.99
2019-05-22T03:09:30.590Z,12.90
2019-05-22T03:12:01.325Z,13.10
2019-05-22T03:14:30.195Z,12.98
2019-05-22T03:17:03.703Z,13.05
2019-05-22T03:19:35.966Z,13.18
2019-05-22T03:22:10.232Z,13.18
2019-05-22T03:24:38.037Z,13.34
2019-05-22T03:27:05.534Z,13.31
2019-05-22T03:29:38.358Z,13.43
2019-05-22T03:32:07.023Z,13.50
2019-05-22T03:34:35.258Z,13.54
2019-05-22T03:37:02.721Z,13.71
2019-05-22T03:39:29.449Z,13.70
2019-05-22T03:41:57.019Z,13.57
2019-05-22T03:44:25.865Z,13.32
2019-05-22T03:46:53.430Z,13.57
2019-05-22T03:49:31.033Z,13.46
2019-05-22T03:51:55.722Z,13.48
2019-05-22T03:54:23.613Z,13.53
2019-05-22T03:56:52.280Z,13.73
2019-05-22T03:59:20.826Z,13.70
2019-05-22T04:01:48.477Z,13.75
2019-05-22T04:04:21.435Z,13.66
2019-05-22T04:06:51.733Z,13.68
2019-05-22T04:09:19.874Z,13.80
2019-05-22T04:11:46.823Z,13.93
2019-05-22T04:14:15.441Z,13.88
2019-05-22T04:16:44.165Z,13.96
2019-05-22T04:19:15.164Z,14.12
2019-05-22T04:21:44.596Z,13.85
2019-05-22T04:24:12.143Z,14.08
2019-05-22T04:26:40.900Z,14.08
2019-05-22T04:29:08.539Z,14.03
2019-05-22T04:31:41.607Z,13.96
2019-05-22T04:34:10.138Z,14.01
2019-05-22T04:36:39.551Z,14.05
2019-05-22T04:39:12.750Z,14.29
2019-05-22T04:41:40.578Z,14.21
2019-05-22T04:44:07.252Z,14.40
2019-05-22T04:46:34.184Z,14.58
2019-05-22T04:49:01.295Z,14.50
2019-05-22T04:51:29.489Z,14.57
2019-05-22T04:53:56.476Z,14.60
2019-05-22T04:56:26.096Z,14.75
2019-05-22T04:58:54.341Z,14.90
2019-05-22T05:01:22.490Z,14.97
2019-05-22T05:03:49.936Z,14.98
2019-05-22T05:06:18.781Z,14.91
2019-05-22T05:08:45.574Z,15.17
2019-05-22T05:11:12.641Z,15.10
2019-05-22T05:13:39.441Z,15.23
2019-05-22T05:16:07.166Z,15.26
2019-05-22T05:18:34.815Z,15.40
2019-05-22T05:21:01.632Z,15.61
2019-05-22T05:23:30.033Z,15.51
2019-05-22T05:25:58.100Z,15.64
2019-05-22T05:28:25.819Z,15.82
2019-05-22T05:30:55.445Z,15.80
2019-05-22T05:33:24.830Z,15.93
2019-05-22T05:35:51.639Z,16.11
2019-05-22T05:38:24.024Z,16.20
2019-05-22T05:40:51.354Z,16.08
2019-05-22T05:43:19.051Z,15.93
2019-05-22T05:45:49.126Z,16.01
2019-05-22T05:48:20.994Z,16.13
2019-05-22T05:50:53.376Z,16.37
2019-05-22T05:53:22.153Z,16.42
2019-05-22T05:55:54.456Z,16.63
2019-05-22T05:58:27.183Z,16.80
2019-05-22T06:00:57.997Z,16.69
2019-05-22T06:03:28.531Z,16.85
2019-05-22T06:05:55.383Z,17.01
2019-05-22T06:08:22.740Z,16.62
2019-05-22T06:10:54.032Z,16.96
2019-05-22T06:13:20.792Z,16.96
2019-05-22T06:15:49.363Z,17.09
2019-05-22T06:18:23.124Z,16.97
2019-05-22T06:21:03.208Z,16.73
2019-05-22T06:23:20.906Z,16.62
2019-05-22T06:25:48.540Z,16.76
2019-05-22T06:28:15.494Z,16.78
2019-05-22T06:30:45.836Z,16.51
2019-05-22T06:33:18.821Z,16.49
2019-05-22T06:35:47.439Z,16.16
2019-05-22T06:38:20.103Z,16.47
2019-05-22T06:40:47.183Z,16.71
2019-05-22T06:43:17.707Z,16.43
2019-05-22T06:45:44.536Z,16.79
2019-05-22T06:48:11.631Z,16.41
2019-05-22T06:50:38.250Z,16.56
2019-05-22T06:53:09.986Z,16.49
2019-05-22T06:55:35.287Z,16.58
2019-05-22T06:58:03.185Z,16.44
2019-05-22T07:00:30.096Z,16.62
2019-05-22T07:02:56.841Z,16.65
2019-05-22T07:05:25.351Z,16.62
2019-05-22T07:07:52.917Z,16.62
2019-05-22T07:10:21.174Z,16.75
2019-05-22T07:12:50.890Z,16.70
2019-05-22T07:15:20.756Z,16.68
2019-05-22T07:17:51.201Z,16.98
2019-05-22T07:20:20.376Z,16.99
2019-05-22T07:22:48.575Z,17.01
2019-05-22T07:25:17.711Z,17.12
2019-05-22T07:27:44.500Z,17.25
2019-05-22T07:30:14.628Z,17.24
2019-05-22T07:32:41.779Z,17.35
2019-05-22T07:35:08.975Z,17.35
2019-05-22T07:37:40.892Z,17.12
2019-05-22T07:40:10.381Z,17.12
2019-05-22T07:42:37.391Z,17.18
2019-05-22T07:45:06.183Z,17.21
2019-05-22T07:47:34.918Z,17.27
2019-05-22T07:50:05.493Z,17.47
2019-05-22T07:52:34.063Z,17.69
2019-05-22T07:55:01.629Z,17.68
2019-05-22T07:57:29.490Z,17.80
2019-05-22T07:59:56.413Z,18.04
2019-05-22T08:02:28.468Z,17.92
2019-05-22T08:04:55.901Z,18.10
2019-05-22T08:07:24.960Z,18.35
2019-05-22T08:09:52.097Z,18.31
2019-05-22T08:12:19.950Z,18.38
2019-05-22T08:14:47.851Z,18.19
2019-05-22T08:17:16.464Z,17.91
2019-05-22T08:19:43.964Z,17.61
2019-05-22T08:22:13.568Z,17.31
2019-05-22T08:24:41.816Z,17.32
2019-05-22T08:27:10.940Z,17.20
2019-05-22T08:29:38.549Z,17.04
2019-05-22T08:32:06.785Z,17.32
2019-05-22T08:34:33.468Z,17.02
2019-05-22T08:37:04.229Z,16.96
2019-05-22T08:39:30.981Z,17.13
2019-05-22T08:41:58.739Z,17.29
2019-05-22T08:44:26.935Z,17.34
2019-05-22T08:46:54.788Z,17.33
2019-05-22T08:49:24.438Z,17.18
2019-05-22T08:51:52.732Z,17.24
2019-05-22T08:54:21.209Z,17.41
2019-05-22T08:56:48.898Z,17.25
2019-05-22T08:59:19.616Z,17.01
2019-05-22T09:01:45.777Z,16.73
2019-05-22T09:04:13.042Z,16.61
2019-05-22T09:06:40.351Z,16.60
2019-05-22T09:09:07.150Z,16.29
2019-05-22T09:11:34.226Z,16.43
2019-05-22T09:14:01.160Z,16.35
2019-05-22T09:16:28.509Z,16.52
2019-05-22T09:19:51.339Z,16.77
2019-05-22T09:22:18.808Z,16.62
2019-05-22T09:24:47.399Z,16.56
2019-05-22T09:27:15.217Z,16.67
2019-05-22T09:29:41.968Z,16.67
2019-05-22T09:32:09.145Z,16.74
2019-05-22T09:34:36.229Z,16.58
2019-05-22T09:37:04.330Z,16.53
2019-05-22T09:39:31.620Z,16.49
2019-05-22T09:41:58.631Z,16.60
2019-05-22T09:44:26.032Z,16.34
2019-05-22T09:46:53.425Z,16.62
2019-05-22T09:49:23.914Z,16.58
2019-05-22T09:51:49.234Z,16.64
2019-05-22T09:54:16.022Z,16.83
2019-05-22T09:56:44.621Z,16.59
2019-05-22T09:59:12.769Z,16.63
2019-05-22T10:01:39.695Z,16.83
2019-05-22T10:04:07.608Z,16.96
2019-05-22T10:06:34.686Z,16.93
2019-05-22T10:09:01.732Z,16.91
2019-05-22T10:11:34.015Z,17.11
2019-05-22T10:14:02.860Z,17.20
2019-05-22T10:16:30.055Z,17.04
2019-05-22T10:18:57.043Z,17.13
2019-05-22T10:21:25.148Z,16.98
2019-05-22T10:23:52.556Z,17.01
2019-05-22T10:26:19.221Z,16.95
2019-05-22T10:28:46.456Z,16.80
2019-05-22T10:31:16.939Z,16.50
2019-05-22T10:33:43.016Z,16.59
2019-05-22T10:36:10.172Z,16.34
2019-05-22T10:38:36.882Z,16.21
2019-05-22T10:41:04.881Z,16.49
2019-05-22T10:43:34.212Z,16.63
2019-05-22T10:46:01.728Z,16.66
2019-05-22T10:48:28.791Z,16.76
2019-05-22T10:50:55.867Z,16.70
2019-05-22T10:54:19.172Z,16.71
2019-05-22T10:56:46.234Z,17.01
2019-05-22T10:59:13.310Z,17.24
2019-05-22T11:01:40.255Z,17.76
2019-05-22T11:04:07.492Z,17.90
2019-05-22T11:06:34.325Z,18.34
2019-05-22T11:09:01.571Z,18.29
2019-05-22T11:11:29.752Z,18.65
2019-05-22T11:14:01.676Z,18.71
2019-05-22T11:16:26.474Z,18.86
2019-05-22T11:18:53.410Z,18.83
2019-05-22T11:21:20.271Z,18.86
2019-05-22T11:23:52.453Z,18.70
2019-05-22T11:26:15.997Z,18.42
2019-05-22T11:28:42.886Z,18.76
2019-05-22T11:31:11.276Z,18.69
2019-05-22T11:33:38.693Z,18.16
2019-05-22T11:36:06.032Z,18.41
2019-05-22T11:38:32.738Z,18.53
2019-05-22T11:41:00.442Z,18.31
2019-05-22T11:43:28.049Z,18.49
2019-05-22T11:45:55.588Z,18.65
2019-05-22T11:48:24.499Z,18.65
2019-05-22T11:50:53.406Z,18.88
2019-05-22T11:53:20.336Z,18.70
2019-05-22T11:55:47.405Z,18.55
2019-05-22T11:58:14.905Z,18.84
2019-05-22T12:00:41.778Z,18.62
2019-05-22T12:03:08.442Z,18.80
2019-05-22T12:05:36.078Z,18.86
2019-05-22T12:08:05.095Z,18.90
2019-05-22T12:10:31.962Z,18.99
2019-05-22T12:12:58.963Z,18.78
2019-05-22T12:15:27.759Z,18.93
2019-05-22T12:17:55.196Z,18.92
2019-05-22T12:20:24.065Z,18.68
2019-05-22T12:22:51.692Z,18.96
2019-05-22T12:25:19.065Z,18.82
2019-05-22T12:27:47.582Z,19.25
2019-05-22T12:30:16.785Z,19.60
2019-05-22T12:32:45.421Z,19.78
2019-05-22T12:35:15.083Z,20.14
2019-05-22T12:37:43.619Z,20.03
2019-05-22T12:40:16.570Z,19.79
2019-05-22T12:42:44.826Z,19.93
2019-05-22T12:45:14.468Z,19.68
2019-05-22T12:47:42.739Z,20.09
2019-05-22T12:50:14.841Z,20.13
2019-05-22T12:52:46.865Z,20.09
2019-05-22T12:55:17.035Z,19.73
2019-05-22T12:57:44.668Z,19.15
2019-05-22T13:00:11.922Z,18.68
2019-05-22T13:02:42.444Z,18.49
2019-05-22T13:05:08.727Z,18.43
2019-05-22T13:07:36.740Z,18.88
2019-05-22T13:10:06.044Z,19.07
2019-05-22T13:12:33.772Z,18.84
2019-05-22T13:15:09.914Z,19.09
2019-05-22T13:17:32.677Z,19.25
2019-05-22T13:19:59.510Z,19.46
2019-05-22T13:22:28.788Z,19.42
2019-05-22T13:24:56.184Z,19.94
2019-05-22T13:27:23.754Z,20.27
2019-05-22T13:29:51.760Z,20.34
2019-05-22T13:32:21.286Z,20.45
2019-05-22T13:34:51.048Z,20.43
2019-05-22T13:37:18.244Z,20.28
2019-05-22T13:39:44.979Z,20.25
2019-05-22T13:42:13.584Z,20.07
2019-05-22T13:44:42.037Z,20.14
2019-05-22T13:47:09.057Z,20.06
2019-05-22T13:49:38.662Z,19.77
2019-05-22T13:52:06.344Z,19.65
2019-05-22T13:54:33.918Z,19.76
2019-05-22T13:57:01.555Z,19.73
2019-05-22T13:59:29.339Z,19.60
2019-05-22T14:01:56.918Z,19.59
2019-05-22T14:04:24.165Z,19.52
2019-05-22T14:06:51.211Z,19.57
2019-05-22T14:09:21.437Z,19.56
2019-05-22T14:11:49.254Z,19.52
2019-05-22T14:14:17.094Z,19.69
2019-05-22T14:16:49.190Z,19.36
2019-05-22T14:19:15.223Z,19.33
2019-05-22T14:21:50.109Z,19.39
2019-05-22T14:24:10.891Z,19.24
2019-05-22T14:26:37.676Z,19.12
2019-05-22T14:29:04.708Z,18.92
2019-05-22T14:31:31.924Z,18.66
2019-05-22T14:33:59.300Z,18.62
2019-05-22T14:36:26.206Z,18.81
2019-05-22T14:38:54.697Z,18.65
2019-05-22T14:41:21.848Z,18.61
2019-05-22T14:43:48.943Z,18.43
2019-05-22T14:46:15.887Z,18.58
2019-05-22T14:48:42.811Z,18.71
2019-05-22T14:51:10.160Z,18.71
2019-05-22T14:53:39.693Z,19.20
2019-05-22T14:56:10.711Z,19.31
2019-05-22T14:58:38.067Z,19.28
2019-05-22T15:01:05.489Z,19.30
2019-05-22T15:03:33.116Z,19.45
2019-05-22T15:06:00.170Z,19.71
2019-05-22T15:08:27.182Z,19.69
2019-05-22T15:10:55.211Z,20.07
2019-05-22T15:13:22.595Z,19.48
2019-05-22T15:15:49.762Z,19.88
2019-05-22T15:18:16.658Z,19.93
2019-05-22T15:20:45.757Z,20.46
2019-05-22T15:23:12.898Z,20.44
2019-05-22T15:25:40.029Z,20.39
2019-05-22T15:28:07.676Z,20.53
2019-05-22T15:30:35.082Z,20.97
2019-05-22T15:33:01.965Z,21.05
2019-05-22T15:35:29.132Z,20.69
2019-05-22T15:37:58.305Z,19.18
2019-05-22T15:40:25.563Z,18.60
2019-05-22T15:42:53.079Z,18.01
2019-05-22T15:45:25.138Z,18.10
2019-05-22T15:47:57.262Z,18.21
2019-05-22T15:50:31.313Z,18.05
2019-05-22T15:53:06.309Z,17.93
2019-05-22T15:55:36.304Z,17.80
2019-05-22T15:58:04.856Z,17.83
2019-05-22T16:00:35.760Z,17.72
2019-05-22T16:03:09.319Z,17.71
2019-05-22T16:05:39.815Z,17.97
2019-05-22T16:08:08.113Z,17.95
2019-05-22T16:10:37.764Z,17.92
2019-05-22T16:13:05.133Z,18.01
2019-05-22T16:15:35.397Z,18.08
2019-05-22T16:18:11.498Z,18.11
2019-05-22T16:20:36.873Z,18.13
2019-05-22T16:23:04.552Z,18.10
2019-05-22T16:25:31.675Z,17.92
2019-05-22T16:27:58.847Z,17.94
2019-05-22T16:30:27.484Z,17.96
2019-05-22T16:32:55.655Z,18.03
2019-05-22T16:35:24.527Z,18.02
2019-05-22T16:37:53.777Z,17.83
2019-05-22T16:40:21.546Z,17.96
2019-05-22T16:42:48.907Z,17.94
2019-05-22T16:45:16.568Z,17.94
2019-05-22T16:47:44.123Z,17.89
2019-05-22T16:50:12.020Z,17.96
2019-05-22T16:52:42.512Z,18.17
2019-05-22T16:55:12.967Z,18.15
2019-05-22T16:57:40.852Z,18.37
2019-05-22T17:00:11.309Z,18.41
2019-05-22T17:02:40.020Z,18.37
2019-05-22T17:05:10.839Z,18.40
2019-05-22T17:07:39.445Z,18.58
2019-05-22T17:10:11.737Z,18.42
2019-05-22T17:12:39.943Z,18.34
2019-05-22T17:15:12.621Z,18.25
2019-05-22T17:17:39.403Z,18.34
2019-05-22T17:20:09.468Z,18.16
2019-05-22T17:22:37.529Z,18.20
2019-05-22T17:25:06.606Z,18.16
2019-05-22T17:27:34.918Z,18.16
2019-05-22T17:30:04.840Z,17.88
2019-05-22T17:32:32.341Z,18.02
2019-05-22T17:34:59.692Z,17.94
2019-05-22T17:37:28.328Z,17.61
2019-05-22T17:39:55.451Z,17.69
2019-05-22T17:42:25.832Z,17.81
2019-05-22T17:44:53.347Z,17.74
2019-05-22T17:47:24.243Z,17.51
2019-05-22T17:49:52.620Z,17.48
2019-05-22T17:52:21.735Z,17.54
2019-05-22T17:54:49.563Z,17.55
2019-05-22T17:57:17.847Z,17.57
2019-05-22T17:59:44.854Z,17.50
2019-05-22T18:02:13.887Z,17.42
2019-05-22T18:04:41.448Z,17.30
2019-05-22T18:07:08.833Z,17.10
2019-05-22T18:09:36.577Z,17.06
2019-05-22T18:12:05.530Z,17.23
2019-05-22T18:14:33.950Z,17.27
2019-05-22T18:17:01.056Z,17.07
2019-05-22T18:19:28.819Z,17.16
2019-05-22T18:21:56.446Z,17.18
2019-05-22T18:24:23.493Z,17.02
2019-05-22T18:26:50.186Z,16.95
2019-05-22T18:29:17.034Z,16.78
2019-05-22T18:31:44.002Z,17.03
2019-05-22T18:34:10.846Z,16.98
2019-05-22T18:36:37.731Z,16.88
2019-05-22T18:39:06.049Z,16.53
2019-05-22T18:41:32.925Z,16.36
2019-05-22T18:43:59.821Z,16.32
2019-05-22T18:46:27.142Z,16.36
2019-05-22T18:48:54.102Z,16.48
2019-05-22T18:51:22.115Z,16.27
2019-05-22T18:53:49.960Z,16.16
2019-05-22T18:56:18.103Z,16.17
2019-05-22T18:58:45.731Z,16.18
2019-05-22T19:01:16.223Z,16.29
2019-05-22T19:03:41.600Z,16.36
2019-05-22T19:06:08.877Z,16.43
2019-05-22T19:08:35.576Z,16.27
2019-05-22T19:11:03.607Z,16.08
2019-05-22T19:13:30.379Z,16.04
2019-05-22T19:15:57.501Z,16.13
2019-05-22T19:18:24.508Z,16.06
2019-05-22T19:20:51.396Z,15.96
2019-05-22T19:23:18.211Z,16.14
2019-05-22T19:25:45.063Z,16.20
2019-05-22T19:28:12.430Z,16.16
2019-05-22T19:30:39.612Z,16.15
2019-05-22T19:33:06.780Z,16.08
2019-05-22T19:35:33.683Z,16.11
2019-05-22T19:38:00.804Z,16.07
2019-05-22T19:40:28.698Z,16.10
2019-05-22T19:42:56.311Z,16.12
2019-05-22T19:45:23.489Z,16.19
2019-05-22T19:47:56.291Z,16.11
2019-05-22T19:50:24.769Z,16.13
2019-05-22T19:52:53.977Z,16.06
2019-05-22T19:55:29.034Z,16.03
2019-05-22T19:58:05.818Z,15.88
2019-05-22T20:00:38.643Z,15.83
2019-05-22T20:03:06.678Z,15.79
2019-05-22T20:05:34.664Z,15.74
2019-05-22T20:08:02.894Z,15.71
2019-05-22T20:10:29.719Z,15.77
2019-05-22T20:12:56.898Z,15.76
2019-05-22T20:15:25.614Z,15.64
2019-05-22T20:17:54.442Z,15.67
2019-05-22T20:20:22.424Z,15.52
2019-05-22T20:22:49.197Z,15.55
2019-05-22T20:25:18.789Z,15.52
2019-05-22T20:27:45.848Z,15.43
2019-05-22T20:30:15.077Z,15.54
2019-05-22T20:32:43.021Z,15.44
2019-05-22T20:35:11.014Z,15.45
2019-05-22T20:37:38.631Z,15.28
2019-05-22T20:40:07.572Z,15.14
2019-05-22T20:42:35.229Z,15.10
2019-05-22T20:45:04.186Z,14.93
2019-05-22T20:47:31.323Z,15.10
2019-05-22T20:50:01.138Z,15.14
2019-05-22T20:52:30.351Z,15.14
2019-05-22T20:54:57.159Z,15.17
2019-05-22T20:57:26.109Z,15.21
2019-05-22T20:59:54.199Z,15.22
2019-05-22T21:02:23.710Z,15.20
2019-05-22T21:04:53.213Z,15.16
2019-05-22T21:07:25.973Z,15.14
2019-05-22T21:09:54.836Z,14.93
2019-05-22T21:12:22.755Z,15.04
2019-05-22T21:14:50.025Z,15.17
2019-05-22T21:17:17.438Z,15.22
2019-05-22T21:19:44.462Z,15.16
2019-05-22T21:22:13.298Z,15.23
2019-05-22T21:24:40.547Z,15.26
2019-05-22T21:27:08.709Z,15.19
2019-05-22T21:29:36.891Z,15.20
2019-05-22T21:32:05.398Z,15.24
2019-05-22T21:34:32.422Z,15.27
2019-05-22T21:36:59.117Z,15.23
2019-05-22T21:39:27.052Z,15.26
2019-05-22T21:41:53.676Z,15.23
2019-05-22T21:44:20.712Z,15.13
2019-05-22T21:46:47.475Z,15.07
2019-05-22T21:49:15.243Z,15.07
2019-05-22T21:51:41.811Z,15.05
2019-05-22T21:54:08.877Z,14.88
2019-05-22T21:56:37.058Z,14.87
2019-05-22T21:59:05.258Z,14.94
2019-05-22T22:01:34.926Z,14.90
2019-05-22T22:04:03.717Z,14.81
2019-05-22T22:06:33.320Z,14.72
2019-05-22T22:09:00.451Z,14.75
2019-05-22T22:11:29.496Z,14.77
2019-05-22T22:13:59.035Z,14.86
2019-05-22T22:16:27.726Z,14.88
2019-05-22T22:18:55.809Z,14.87
2019-05-22T22:21:23.787Z,14.76
2019-05-22T22:23:51.731Z,14.86
2019-05-22T22:26:25.565Z,14.91
2019-05-22T22:28:47.009Z,14.89
2019-05-22T22:31:15.738Z,14.69
2019-05-22T22:33:48.224Z,14.55
2019-05-22T22:36:17.683Z,14.54
2019-05-22T22:38:45.351Z,14.47
2019-05-22T22:41:13.549Z,14.26
2019-05-22T22:43:42.504Z,14.21
2019-05-22T22:46:16.793Z,14.32
2019-05-22T22:48:44.174Z,14.24
2019-05-22T22:51:12.707Z,14.36
2019-05-22T22:53:41.441Z,14.41
2019-05-22T22:56:09.186Z,14.36
2019-05-22T22:58:36.642Z,14.31
2019-05-22T23:01:10.018Z,14.40
2019-05-22T23:03:39.208Z,14.30
2019-05-22T23:06:13.269Z,14.32
2019-05-22T23:08:42.243Z,14.21
2019-05-22T23:11:09.929Z,14.03
2019-05-22T23:13:37.861Z,14.12
2019-05-22T23:16:05.993Z,14.07
2019-05-22T23:18:36.596Z,14.08
2019-05-22T23:21:04.245Z,14.04
2019-05-22T23:23:31.802Z,14.11
2019-05-22T23:25:58.406Z,13.99
2019-05-22T23:28:34.088Z,14.06
2019-05-22T23:30:53.607Z,14.30
2019-05-22T23:33:21.898Z,14.40
2019-05-22T23:35:49.479Z,14.32
2019-05-22T23:38:16.984Z,14.32
2019-05-22T23:40:44.789Z,14.21
2019-05-22T23:43:13.648Z,14.27
2019-05-22T23:45:40.865Z,14.26
2019-05-22T23:48:11.296Z,14.33
2019-05-22T23:50:38.489Z,14.26
2019-05-22T23:53:05.441Z,14.35
2019-05-22T23:55:34.819Z,14.33
2019-05-22T23:58:02.136Z,14.14
